Novomar — 5BCT2 — position and weather

sailwx.info

Track history (hours):
 
Tides and Currents Weather Stations Pressure Air Temp Water Temp Dewpoint Dewpoint Depression Visibility Wind Speed Wind Dir Waves Ship Positions

Novomar

Last reported at 2017-Aug-21 06:28 UTC. Time now 2017-Aug-21 06:38 UTC.
Position N 64°40' E 024°08'.

Length 89 m; draft 3.1 m.

Type: Cargo ship. MMSI: 210974000.

Date/timePositionNaut miles runAvg speedWind from/ knotsBaromVisibWave heightAir tempDewpointWater temp
2017-Aug-21 06:28N 64°40' E 024°08'0 0.1
2017-Aug-21 05:58N 64°40' E 024°08'0 0.0
2017-Aug-21 05:28N 64°40' E 024°08'0 0.0
2017-Aug-21 04:58N 64°40' E 024°08'0 0.7
2017-Aug-21 04:31N 64°40' E 024°08'2 4.9
2017-Aug-21 04:00N 64°41' E 024°02'4 7.1
2017-Aug-21 03:30N 64°40' E 023°54'5 9.2
2017-Aug-21 03:01N 64°39' E 023°43'5 9.9
2017-Aug-21 02:31N 64°36' E 023°35'5 9.9
2017-Aug-21 02:01N 64°32' E 023°26'5 9.8
2017-Aug-21 01:31N 64°29' E 023°18'510.0
2017-Aug-21 01:01N 64°25' E 023°10'510.0
2017-Aug-21 00:31N 64°22' E 023°01'510.1
2017-Aug-21 00:01N 64°19' E 022°53'510.1
2017-Aug-20 23:31N 64°15' E 022°44'510.1
2017-Aug-20 23:01N 64°11' E 022°36'5 9.9
2017-Aug-20 22:31N 64°08' E 022°28'5 9.6
2017-Aug-20 22:01N 64°05' E 022°20'5 9.5
2017-Aug-20 21:31N 64°01' E 022°12'5 9.8
2017-Aug-20 21:01N 63°58' E 022°04'5 9.6
2017-Aug-20 20:31N 63°55' E 021°56'5 9.4
2017-Aug-20 20:00N 63°51' E 021°49'5 9.6
2017-Aug-20 19:30N 63°48' E 021°41'5 9.7
2017-Aug-20 19:00N 63°45' E 021°33'5 9.8
2017-Aug-20 18:31N 63°42' E 021°24'5 9.8
2017-Aug-20 18:00N 63°38' E 021°16'5 9.9
2017-Aug-20 17:31N 63°35' E 021°07'5 9.5
2017-Aug-20 17:00N 63°34' E 020°57'4 8.9
2017-Aug-20 16:31N 63°33' E 020°47'5 9.2
2017-Aug-20 16:01N 63°29' E 020°41'5 9.7
2017-Aug-20 15:31N 63°25' E 020°34'5 9.5
2017-Aug-20 15:01N 63°21' E 020°28'5 9.6
2017-Aug-20 14:30N 63°17' E 020°22'5 9.6
2017-Aug-20 14:01N 63°13' E 020°20'5 9.3
2017-Aug-20 13:31N 63°08' E 020°17'5 9.2
2017-Aug-20 13:00N 63°04' E 020°15'5 9.4
2017-Aug-20 12:30N 62°59' E 020°13'5 9.6
2017-Aug-20 12:00N 62°54' E 020°11'5 9.8
2017-Aug-20 11:31N 62°50' E 020°08'5 9.7
2017-Aug-20 11:01N 62°45' E 020°06'5 9.5
2017-Aug-20 10:31N 62°40' E 020°03'5 9.3
2017-Aug-20 10:01N 62°36' E 020°01'5 9.2
2017-Aug-20 09:31N 62°31' E 019°59'5 9.3
2017-Aug-20 09:01N 62°27' E 019°57'5 9.2
2017-Aug-20 08:30N 62°22' E 019°55'5 9.2
2017-Aug-20 08:01N 62°18' E 019°52'5 9.2
2017-Aug-20 07:30N 62°13' E 019°50'5 9.1
2017-Aug-20 07:00N 62°09' E 019°48'4 8.8
2017-Aug-20 06:30N 62°04' E 019°46'5 9.7
2017-Aug-20 05:59N 61°59' E 019°44'5810.0
2017-Aug-20 00:12N 61°03' E 019°17'210.4
2017-Aug-20 00:00N 61°01' E 019°16'510.5
2017-Aug-19 23:31N 60°56' E 019°14'510.5
2017-Aug-19 23:00N 60°51' E 019°11'510.5
2017-Aug-19 22:31N 60°46' E 019°09'510.5
2017-Aug-19 22:01N 60°41' E 019°06'510.4
2017-Aug-19 21:30N 60°36' E 019°04'510.2
2017-Aug-19 21:01N 60°31' E 019°03'510.0
2017-Aug-19 20:30N 60°26' E 019°02'510.1
2017-Aug-19 20:00N 60°20' E 019°01'510.7
2017-Aug-19 19:30N 60°15' E 019°04'4 8.7
2017-Aug-19 19:00N 60°11' E 019°08'5 9.9
2017-Aug-19 18:31N 60°07' E 019°12'5 9.6
2017-Aug-19 18:00N 60°03' E 019°17'5 9.4
2017-Aug-19 17:30N 59°59' E 019°22'5 9.3
2017-Aug-19 17:00N 59°55' E 019°27'5 9.3
2017-Aug-19 16:30N 59°51' E 019°32'5 9.4
2017-Aug-19 16:01N 59°47' E 019°36'5 9.3
2017-Aug-19 15:31N 59°43' E 019°41'5 9.3
2017-Aug-19 15:01N 59°39' E 019°45'10 9.9
2017-Aug-19 14:01N 59°29' E 019°43'5 9.7
2017-Aug-19 13:31N 59°24' E 019°39'5 9.8
2017-Aug-19 13:01N 59°20' E 019°35'5 9.8
2017-Aug-19 12:31N 59°16' E 019°31'510.0
2017-Aug-19 11:59N 59°11' E 019°26'21310.2
2017-Aug-18 15:07N 55°60' E 016°32'110.8
2017-Aug-18 15:00N 55°59' E 016°31'510.6
2017-Aug-18 14:30N 55°56' E 016°23'1010.3
2017-Aug-18 13:30N 55°51' E 016°06'510.2
2017-Aug-18 13:00N 55°49' E 015°59'510.2
2017-Aug-18 12:30N 55°46' E 015°51'510.3
2017-Aug-18 12:00N 55°44' E 015°43'510.6
2017-Aug-18 11:30N 55°41' E 015°35'510.4
2017-Aug-18 11:00N 55°38' E 015°27'510.7
2017-Aug-18 10:30N 55°36' E 015°18'510.7
2017-Aug-18 10:00N 55°33' E 015°10'510.6
2017-Aug-18 09:30N 55°31' E 015°02'510.5
2017-Aug-18 09:00N 55°28' E 014°54'510.4
2017-Aug-18 08:30N 55°25' E 014°46'510.8
2017-Aug-18 08:00N 55°22' E 014°39'510.7
2017-Aug-18 07:30N 55°18' E 014°32'510.6
2017-Aug-18 07:00N 55°15' E 014°25'510.8
2017-Aug-18 06:30N 55°11' E 014°18'510.2
2017-Aug-18 06:00N 55°10' E 014°10'510.6
2017-Aug-18 05:30N 55°11' E 014°00'610.7
2017-Aug-18 04:58N 55°11' E 013°50'510.7
2017-Aug-18 04:30N 55°11' E 013°41'510.7
2017-Aug-18 04:00N 55°12' E 013°32'2010.7
2017-Aug-18 02:05N 55°14' E 012°57'210.5
2017-Aug-18 01:56N 55°15' E 012°54'510.3
2017-Aug-18 01:25N 55°16' E 012°45'410.5
2017-Aug-18 01:00N 55°18' E 012°38'5 9.6
2017-Aug-18 00:30N 55°23' E 012°39'510.1
2017-Aug-18 00:00N 55°28' E 012°41'5 9.8
2017-Aug-17 23:30N 55°33' E 012°42'5 9.2
2017-Aug-17 23:00N 55°37' E 012°42'4 8.8
2017-Aug-17 22:30N 55°42' E 012°41'5 9.1
2017-Aug-17 22:00N 55°46' E 012°41'5 9.1
2017-Aug-17 21:30N 55°51' E 012°39'5 9.1
2017-Aug-17 21:00N 55°55' E 012°38'4 9.0
2017-Aug-17 20:30N 55°60' E 012°38'4 7.9
2017-Aug-17 20:00N 56°04' E 012°38'4 7.2
2017-Aug-17 19:30N 56°06' E 012°33'4 7.7
2017-Aug-17 19:00N 56°08' E 012°28'5 9.1
2017-Aug-17 18:30N 56°11' E 012°21'52 9.5
2017-Aug-17 13:01N 56°59' E 011°43'710.2
2017-Aug-17 12:18N 57°06' E 011°39'310.1
2017-Aug-17 12:00N 57°09' E 011°39'6 9.9
2017-Aug-17 11:24N 57°15' E 011°39'4 9.8
2017-Aug-17 10:59N 57°19' E 011°39'5 9.7
2017-Aug-17 10:30N 57°24' E 011°39'510.1
2017-Aug-17 10:00N 57°29' E 011°39'510.0
2017-Aug-17 09:30N 57°34' E 011°39'5 9.8
2017-Aug-17 09:00N 57°38' E 011°42'3 7.0
2017-Aug-17 08:30N 57°40' E 011°47'0 0.1
2017-Aug-17 08:00N 57°40' E 011°47'0 0.0
2017-Aug-17 07:30N 57°40' E 011°47'0 0.0
2017-Aug-17 07:00N 57°40' E 011°47'1 2.6
2017-Aug-17 06:30N 57°39' E 011°45'5 9.3
2017-Aug-17 06:01N 57°36' E 011°39'4 7.9
2017-Aug-17 05:30N 57°37' E 011°32'5 9.6
2017-Aug-17 04:59N 57°41' E 011°27'5 9.8
2017-Aug-17 04:30N 57°45' E 011°22'510.1
2017-Aug-17 04:00N 57°49' E 011°17'510.6
2017-Aug-17 03:30N 57°54' E 011°11'510.5
2017-Aug-17 03:00N 57°58' E 011°05'510.6
2017-Aug-17 02:30N 58°02' E 010°59'610.2
2017-Aug-17 01:52N 58°07' E 010°51'7 9.8
2017-Aug-17 01:07N 58°13' E 010°44'1 9.6
2017-Aug-17 00:59N 58°14' E 010°42'8 9.7
2017-Aug-17 00:09N 58°21' E 010°33'2 9.9
2017-Aug-16 23:59N 58°22' E 010°30'810.0
2017-Aug-16 23:12N 58°28' E 010°20'310.4
2017-Aug-16 22:56N 58°30' E 010°16'8 9.9
2017-Aug-16 22:09N 58°36' E 010°09'1 9.8
2017-Aug-16 22:00N 58°38' E 010°08'5 9.8
2017-Aug-16 21:28N 58°43' E 010°04'4 9.1
2017-Aug-16 21:00N 58°46' E 010°01'5 9.4
2017-Aug-16 20:30N 58°50' E 009°56'5 9.8
2017-Aug-16 20:00N 58°55' E 009°51'  
2017-Aug-14 06:36N 58°56' E 009°47'3 6.1
2017-Aug-14 06:07N 58°53' E 009°47'1 4.9
2017-Aug-14 06:00N 58°52' E 009°48'2 2.2
2017-Aug-14 05:13N 58°51' E 009°48'1 4.8
2017-Aug-14 05:00N 58°52' E 009°48'1 0.8
2017-Aug-14 04:07N 58°52' E 009°47'1 0.6
2017-Aug-14 03:13N 58°52' E 009°47'0 0.5
2017-Aug-14 02:58N 58°51' E 009°47'0 0.6
2017-Aug-14 02:28N 58°51' E 009°47'0 0.6
2017-Aug-14 01:58N 58°51' E 009°47'0 0.5
2017-Aug-14 01:28N 58°51' E 009°47'0 0.5
2017-Aug-14 00:58N 58°51' E 009°48'0 0.5
2017-Aug-14 00:25N 58°50' E 009°48'0 0.5
2017-Aug-13 23:55N 58°50' E 009°49'0 0.6
2017-Aug-13 23:25N 58°50' E 009°49'0 0.6
2017-Aug-13 22:58N 58°50' E 009°50'0 0.6
2017-Aug-13 22:28N 58°50' E 009°50'3 5.6
2017-Aug-13 21:59N 58°48' E 009°47'4 8.1
2017-Aug-13 21:30N 58°45' E 009°43'3 5.5
2017-Aug-13 21:00N 58°43' E 009°40'1 1.3
2017-Aug-13 20:29N 58°43' E 009°40'1 1.2
2017-Aug-13 19:53N 58°44' E 009°41'0 1.1
2017-Aug-13 19:29N 58°44' E 009°42'1 1.0
2017-Aug-13 18:59N 58°44' E 009°42'1 1.1
2017-Aug-13 18:29N 58°45' E 009°43'1 1.0
2017-Aug-13 17:59N 58°45' E 009°43'0 0.9
2017-Aug-13 17:29N 58°46' E 009°44'0 0.8
2017-Aug-13 16:59N 58°46' E 009°44'0 0.6
2017-Aug-13 16:26N 58°46' E 009°44'0 0.4
2017-Aug-13 15:59N 58°47' E 009°44'0 0.2
2017-Aug-13 15:29N 58°47' E 009°44'0 0.2
2017-Aug-13 14:59N 58°47' E 009°44'0 0.2
2017-Aug-13 14:29N 58°46' E 009°44'0 0.4
2017-Aug-13 13:59N 58°46' E 009°44'0 0.4
2017-Aug-13 13:29N 58°46' E 009°44'0 0.5
2017-Aug-13 12:53N 58°46' E 009°44'0 0.6
2017-Aug-13 12:29N 58°46' E 009°45'0 0.7
2017-Aug-13 11:56N 58°45' E 009°45'0 0.8
2017-Aug-13 11:29N 58°45' E 009°46'0 1.0
2017-Aug-13 10:59N 58°45' E 009°47'1 1.0
2017-Aug-13 10:29N 58°45' E 009°48'1 2.7
2017-Aug-13 10:00N 58°46' E 009°47'2 3.2
2017-Aug-13 09:29N 58°47' E 009°44'2 3.6
2017-Aug-13 09:00N 58°46' E 009°41'4 7.8
2017-Aug-13 08:30N 58°43' E 009°37'4 7.3
2017-Aug-13 08:00N 58°41' E 009°31'4 7.0
2017-Aug-13 07:30N 58°39' E 009°26'4 7.1
2017-Aug-13 07:00N 58°37' E 009°20'2 3.2
2017-Aug-13 06:28N 58°36' E 009°18'1 1.4
2017-Aug-13 05:55N 58°36' E 009°19'1 1.4
2017-Aug-13 05:28N 58°36' E 009°20'1 1.5
2017-Aug-13 04:58N 58°37' E 009°21'1 1.5
2017-Aug-13 04:28N 58°38' E 009°22'1 1.4
2017-Aug-13 03:58N 58°38' E 009°23'1 1.4
2017-Aug-13 03:28N 58°39' E 009°24'1 1.2
2017-Aug-13 02:58N 58°39' E 009°25'1 1.4
2017-Aug-13 02:25N 58°40' E 009°26'1 1.5
2017-Aug-13 01:58N 58°40' E 009°26'1 1.3
2017-Aug-13 01:28N 58°41' E 009°27'1 1.2
2017-Aug-13 00:58N 58°41' E 009°28'1 1.1
2017-Aug-13 00:28N 58°42' E 009°28'1 1.0
2017-Aug-12 23:55N 58°42' E 009°29'0 1.0
2017-Aug-12 23:28N 58°43' E 009°29'0 0.9
2017-Aug-12 22:58N 58°43' E 009°30'0 0.8
2017-Aug-12 22:28N 58°43' E 009°30'0 0.8
2017-Aug-12 21:58N 58°44' E 009°31'0 0.6
2017-Aug-12 21:28N 58°44' E 009°31'0 0.5
2017-Aug-12 20:58N 58°44' E 009°31'0 0.4
2017-Aug-12 20:28N 58°44' E 009°32'0 0.4
2017-Aug-12 19:58N 58°44' E 009°32'0 0.1
2017-Aug-12 19:25N 58°44' E 009°32'0 0.4
2017-Aug-12 18:58N 58°44' E 009°32'0 0.4
2017-Aug-12 18:28N 58°44' E 009°32'0 0.4
2017-Aug-12 17:58N 58°44' E 009°32'0 0.5
2017-Aug-12 17:28N 58°43' E 009°32'0 0.4
2017-Aug-12 16:58N 58°43' E 009°32'0 0.4
2017-Aug-12 16:28N 58°43' E 009°32'0 0.6
2017-Aug-12 15:58N 58°43' E 009°33'0 0.6
2017-Aug-12 15:28N 58°43' E 009°33'0 0.6
2017-Aug-12 14:58N 58°43' E 009°34'0 0.5
2017-Aug-12 14:28N 58°42' E 009°34'0 0.4
2017-Aug-12 13:58N 58°42' E 009°35'0 0.4
2017-Aug-12 13:28N 58°42' E 009°35'0 0.5
2017-Aug-12 12:58N 58°42' E 009°35'0 0.5
2017-Aug-12 12:25N 58°42' E 009°36'0 0.5
2017-Aug-12 11:58N 58°42' E 009°36'0 0.5
2017-Aug-12 11:28N 58°42' E 009°37'0 0.6
2017-Aug-12 10:58N 58°42' E 009°37'0 0.6
2017-Aug-12 10:25N 58°42' E 009°38'0 0.6
2017-Aug-12 09:58N 58°42' E 009°39'0 0.6
2017-Aug-12 09:28N 58°42' E 009°39'0 0.7
2017-Aug-12 08:58N 58°42' E 009°40'0 0.8
2017-Aug-12 08:28N 58°42' E 009°41'2 5.4
2017-Aug-12 08:00N 58°44' E 009°43'4 7.4
2017-Aug-12 07:30N 58°47' E 009°48'4 7.6
2017-Aug-12 07:00N 58°50' E 009°52'3 5.4
2017-Aug-12 06:30N 58°52' E 009°54'3 6.8
2017-Aug-12 06:00N 58°51' E 009°48'2 3.5
2017-Aug-12 05:29N 58°50' E 009°45'2 3.4
2017-Aug-12 05:00N 58°49' E 009°42'2 3.1
2017-Aug-12 04:30N 58°49' E 009°39'0 0.8
2017-Aug-12 04:00N 58°49' E 009°40'2 3.2
2017-Aug-12 03:30N 58°50' E 009°42'2 3.3
2017-Aug-12 03:00N 58°50' E 009°45'1 3.0
2017-Aug-12 02:30N 58°50' E 009°48'1 2.9
2017-Aug-12 02:00N 58°51' E 009°51'2 3.0
2017-Aug-12 01:30N 58°51' E 009°54'1 2.9
2017-Aug-12 01:00N 58°51' E 009°57'2 3.0
2017-Aug-12 00:30N 58°50' E 009°60'1 2.6
2017-Aug-12 00:00N 58°50' E 010°01'3 6.5
2017-Aug-11 23:30N 58°46' E 010°01'3 7.0
2017-Aug-11 23:00N 58°43' E 010°02'46 8.0
2017-Aug-11 17:12N 58°03' E 010°48'2 8.3
2017-Aug-11 16:58N 58°01' E 010°50'4 8.5
2017-Aug-11 16:28N 57°58' E 010°53'4 8.7
2017-Aug-11 16:00N 57°54' E 010°57'5 9.0
2017-Aug-11 15:28N 57°50' E 011°02'4 8.9
2017-Aug-11 14:59N 57°46' E 011°06'9 8.9
2017-Aug-11 13:59N 57°39' E 011°15'4 9.2
2017-Aug-11 13:30N 57°35' E 011°19'5 9.1
2017-Aug-11 13:00N 57°31' E 011°23'4 9.0
2017-Aug-11 12:30N 57°27' E 011°27'5 9.1
2017-Aug-11 12:00N 57°23' E 011°30'5 9.2
2017-Aug-11 11:28N 57°18' E 011°32'4 9.1
2017-Aug-11 11:00N 57°14' E 011°35'5 8.9
2017-Aug-11 10:29N 57°10' E 011°38'  
Track history (hours):
 
Tides and Currents Weather Stations Pressure Air Temp Water Temp Dewpoint Dewpoint Depression Visibility Wind Speed Wind Dir Waves Ship Positions

Novomar

Last reported at 2017-Aug-21 06:28 UTC. Time now 2017-Aug-21 06:38 UTC.
Position N 64°40' E 024°08'.

Length 89 m; draft 3.1 m.

Type: Cargo ship. MMSI: 210974000.

Date/timePositionNaut miles runAvg speedWind from/ knotsBaromVisibWave heightAir tempDewpointWater temp
2017-Aug-21 06:28N 64°40' E 024°08'0 0.1
2017-Aug-21 05:58N 64°40' E 024°08'0 0.0
2017-Aug-21 05:28N 64°40' E 024°08'0 0.0
2017-Aug-21 04:58N 64°40' E 024°08'0 0.7
2017-Aug-21 04:31N 64°40' E 024°08'2 4.9
2017-Aug-21 04:00N 64°41' E 024°02'4 7.1
2017-Aug-21 03:30N 64°40' E 023°54'5 9.2
2017-Aug-21 03:01N 64°39' E 023°43'5 9.9
2017-Aug-21 02:31N 64°36' E 023°35'5 9.9
2017-Aug-21 02:01N 64°32' E 023°26'5 9.8
2017-Aug-21 01:31N 64°29' E 023°18'510.0
2017-Aug-21 01:01N 64°25' E 023°10'510.0
2017-Aug-21 00:31N 64°22' E 023°01'510.1
2017-Aug-21 00:01N 64°19' E 022°53'510.1
2017-Aug-20 23:31N 64°15' E 022°44'510.1
2017-Aug-20 23:01N 64°11' E 022°36'5 9.9
2017-Aug-20 22:31N 64°08' E 022°28'5 9.6
2017-Aug-20 22:01N 64°05' E 022°20'5 9.5
2017-Aug-20 21:31N 64°01' E 022°12'5 9.8
2017-Aug-20 21:01N 63°58' E 022°04'5 9.6
2017-Aug-20 20:31N 63°55' E 021°56'5 9.4
2017-Aug-20 20:00N 63°51' E 021°49'5 9.6
2017-Aug-20 19:30N 63°48' E 021°41'5 9.7
2017-Aug-20 19:00N 63°45' E 021°33'5 9.8
2017-Aug-20 18:31N 63°42' E 021°24'5 9.8
2017-Aug-20 18:00N 63°38' E 021°16'5 9.9
2017-Aug-20 17:31N 63°35' E 021°07'5 9.5
2017-Aug-20 17:00N 63°34' E 020°57'4 8.9
2017-Aug-20 16:31N 63°33' E 020°47'5 9.2
2017-Aug-20 16:01N 63°29' E 020°41'5 9.7
2017-Aug-20 15:31N 63°25' E 020°34'5 9.5
2017-Aug-20 15:01N 63°21' E 020°28'5 9.6
2017-Aug-20 14:30N 63°17' E 020°22'5 9.6
2017-Aug-20 14:01N 63°13' E 020°20'5 9.3
2017-Aug-20 13:31N 63°08' E 020°17'5 9.2
2017-Aug-20 13:00N 63°04' E 020°15'5 9.4
2017-Aug-20 12:30N 62°59' E 020°13'5 9.6
2017-Aug-20 12:00N 62°54' E 020°11'5 9.8
2017-Aug-20 11:31N 62°50' E 020°08'5 9.7
2017-Aug-20 11:01N 62°45' E 020°06'5 9.5
2017-Aug-20 10:31N 62°40' E 020°03'5 9.3
2017-Aug-20 10:01N 62°36' E 020°01'5 9.2
2017-Aug-20 09:31N 62°31' E 019°59'5 9.3
2017-Aug-20 09:01N 62°27' E 019°57'5 9.2
2017-Aug-20 08:30N 62°22' E 019°55'5 9.2
2017-Aug-20 08:01N 62°18' E 019°52'5 9.2
2017-Aug-20 07:30N 62°13' E 019°50'5 9.1
2017-Aug-20 07:00N 62°09' E 019°48'4 8.8
2017-Aug-20 06:30N 62°04' E 019°46'5 9.7
2017-Aug-20 05:59N 61°59' E 019°44'5810.0
2017-Aug-20 00:12N 61°03' E 019°17'210.4
2017-Aug-20 00:00N 61°01' E 019°16'510.5
2017-Aug-19 23:31N 60°56' E 019°14'510.5
2017-Aug-19 23:00N 60°51' E 019°11'510.5
2017-Aug-19 22:31N 60°46' E 019°09'510.5
2017-Aug-19 22:01N 60°41' E 019°06'510.4
2017-Aug-19 21:30N 60°36' E 019°04'510.2
2017-Aug-19 21:01N 60°31' E 019°03'510.0
2017-Aug-19 20:30N 60°26' E 019°02'510.1
2017-Aug-19 20:00N 60°20' E 019°01'510.7
2017-Aug-19 19:30N 60°15' E 019°04'4 8.7
2017-Aug-19 19:00N 60°11' E 019°08'5 9.9
2017-Aug-19 18:31N 60°07' E 019°12'5 9.6
2017-Aug-19 18:00N 60°03' E 019°17'5 9.4
2017-Aug-19 17:30N 59°59' E 019°22'5 9.3
2017-Aug-19 17:00N 59°55' E 019°27'5 9.3
2017-Aug-19 16:30N 59°51' E 019°32'5 9.4
2017-Aug-19 16:01N 59°47' E 019°36'5 9.3
2017-Aug-19 15:31N 59°43' E 019°41'5 9.3
2017-Aug-19 15:01N 59°39' E 019°45'10 9.9
2017-Aug-19 14:01N 59°29' E 019°43'5 9.7
2017-Aug-19 13:31N 59°24' E 019°39'5 9.8
2017-Aug-19 13:01N 59°20' E 019°35'5 9.8
2017-Aug-19 12:31N 59°16' E 019°31'510.0
2017-Aug-19 11:59N 59°11' E 019°26'21310.2
2017-Aug-18 15:07N 55°60' E 016°32'110.8
2017-Aug-18 15:00N 55°59' E 016°31'510.6
2017-Aug-18 14:30N 55°56' E 016°23'1010.3
2017-Aug-18 13:30N 55°51' E 016°06'510.2
2017-Aug-18 13:00N 55°49' E 015°59'510.2
2017-Aug-18 12:30N 55°46' E 015°51'510.3
2017-Aug-18 12:00N 55°44' E 015°43'510.6
2017-Aug-18 11:30N 55°41' E 015°35'510.4
2017-Aug-18 11:00N 55°38' E 015°27'510.7
2017-Aug-18 10:30N 55°36' E 015°18'510.7
2017-Aug-18 10:00N 55°33' E 015°10'510.6
2017-Aug-18 09:30N 55°31' E 015°02'510.5
2017-Aug-18 09:00N 55°28' E 014°54'510.4
2017-Aug-18 08:30N 55°25' E 014°46'510.8
2017-Aug-18 08:00N 55°22' E 014°39'510.7
2017-Aug-18 07:30N 55°18' E 014°32'510.6
2017-Aug-18 07:00N 55°15' E 014°25'510.8
2017-Aug-18 06:30N 55°11' E 014°18'510.2
2017-Aug-18 06:00N 55°10' E 014°10'510.6
2017-Aug-18 05:30N 55°11' E 014°00'610.7
2017-Aug-18 04:58N 55°11' E 013°50'510.7
2017-Aug-18 04:30N 55°11' E 013°41'510.7
2017-Aug-18 04:00N 55°12' E 013°32'2010.7
2017-Aug-18 02:05N 55°14' E 012°57'210.5
2017-Aug-18 01:56N 55°15' E 012°54'510.3
2017-Aug-18 01:25N 55°16' E 012°45'410.5
2017-Aug-18 01:00N 55°18' E 012°38'5 9.6
2017-Aug-18 00:30N 55°23' E 012°39'510.1
2017-Aug-18 00:00N 55°28' E 012°41'5 9.8
2017-Aug-17 23:30N 55°33' E 012°42'5 9.2
2017-Aug-17 23:00N 55°37' E 012°42'4 8.8
2017-Aug-17 22:30N 55°42' E 012°41'5 9.1
2017-Aug-17 22:00N 55°46' E 012°41'5 9.1
2017-Aug-17 21:30N 55°51' E 012°39'5 9.1
2017-Aug-17 21:00N 55°55' E 012°38'4 9.0
2017-Aug-17 20:30N 55°60' E 012°38'4 7.9
2017-Aug-17 20:00N 56°04' E 012°38'4 7.2
2017-Aug-17 19:30N 56°06' E 012°33'4 7.7
2017-Aug-17 19:00N 56°08' E 012°28'5 9.1
2017-Aug-17 18:30N 56°11' E 012°21'52 9.5
2017-Aug-17 13:01N 56°59' E 011°43'710.2
2017-Aug-17 12:18N 57°06' E 011°39'310.1
2017-Aug-17 12:00N 57°09' E 011°39'6 9.9
2017-Aug-17 11:24N 57°15' E 011°39'4 9.8
2017-Aug-17 10:59N 57°19' E 011°39'5 9.7
2017-Aug-17 10:30N 57°24' E 011°39'510.1
2017-Aug-17 10:00N 57°29' E 011°39'510.0
2017-Aug-17 09:30N 57°34' E 011°39'5 9.8
2017-Aug-17 09:00N 57°38' E 011°42'3 7.0
2017-Aug-17 08:30N 57°40' E 011°47'0 0.1
2017-Aug-17 08:00N 57°40' E 011°47'0 0.0
2017-Aug-17 07:30N 57°40' E 011°47'0 0.0
2017-Aug-17 07:00N 57°40' E 011°47'1 2.6
2017-Aug-17 06:30N 57°39' E 011°45'5 9.3
2017-Aug-17 06:01N 57°36' E 011°39'4 7.9
2017-Aug-17 05:30N 57°37' E 011°32'5 9.6
2017-Aug-17 04:59N 57°41' E 011°27'5 9.8
2017-Aug-17 04:30N 57°45' E 011°22'510.1
2017-Aug-17 04:00N 57°49' E 011°17'510.6
2017-Aug-17 03:30N 57°54' E 011°11'510.5
2017-Aug-17 03:00N 57°58' E 011°05'510.6
2017-Aug-17 02:30N 58°02' E 010°59'610.2
2017-Aug-17 01:52N 58°07' E 010°51'7 9.8
2017-Aug-17 01:07N 58°13' E 010°44'1 9.6
2017-Aug-17 00:59N 58°14' E 010°42'8 9.7
2017-Aug-17 00:09N 58°21' E 010°33'2 9.9
2017-Aug-16 23:59N 58°22' E 010°30'810.0
2017-Aug-16 23:12N 58°28' E 010°20'310.4
2017-Aug-16 22:56N 58°30' E 010°16'8 9.9
2017-Aug-16 22:09N 58°36' E 010°09'1 9.8
2017-Aug-16 22:00N 58°38' E 010°08'5 9.8
2017-Aug-16 21:28N 58°43' E 010°04'4 9.1
2017-Aug-16 21:00N 58°46' E 010°01'5 9.4
2017-Aug-16 20:30N 58°50' E 009°56'5 9.8
2017-Aug-16 20:00N 58°55' E 009°51'  
2017-Aug-14 06:36N 58°56' E 009°47'3 6.1
2017-Aug-14 06:07N 58°53' E 009°47'1 4.9
2017-Aug-14 06:00N 58°52' E 009°48'2 2.2
2017-Aug-14 05:13N 58°51' E 009°48'1 4.8
2017-Aug-14 05:00N 58°52' E 009°48'1 0.8
2017-Aug-14 04:07N 58°52' E 009°47'1 0.6
2017-Aug-14 03:13N 58°52' E 009°47'0 0.5
2017-Aug-14 02:58N 58°51' E 009°47'0 0.6
2017-Aug-14 02:28N 58°51' E 009°47'0 0.6
2017-Aug-14 01:58N 58°51' E 009°47'0 0.5
2017-Aug-14 01:28N 58°51' E 009°47'0 0.5
2017-Aug-14 00:58N 58°51' E 009°48'0 0.5
2017-Aug-14 00:25N 58°50' E 009°48'0 0.5
2017-Aug-13 23:55N 58°50' E 009°49'0 0.6
2017-Aug-13 23:25N 58°50' E 009°49'0 0.6
2017-Aug-13 22:58N 58°50' E 009°50'0 0.6
2017-Aug-13 22:28N 58°50' E 009°50'3 5.6
2017-Aug-13 21:59N 58°48' E 009°47'4 8.1
2017-Aug-13 21:30N 58°45' E 009°43'3 5.5
2017-Aug-13 21:00N 58°43' E 009°40'1 1.3
2017-Aug-13 20:29N 58°43' E 009°40'1 1.2
2017-Aug-13 19:53N 58°44' E 009°41'0 1.1
2017-Aug-13 19:29N 58°44' E 009°42'1 1.0
2017-Aug-13 18:59N 58°44' E 009°42'1 1.1
2017-Aug-13 18:29N 58°45' E 009°43'1 1.0
2017-Aug-13 17:59N 58°45' E 009°43'0 0.9
2017-Aug-13 17:29N 58°46' E 009°44'0 0.8
2017-Aug-13 16:59N 58°46' E 009°44'0 0.6
2017-Aug-13 16:26N 58°46' E 009°44'0 0.4
2017-Aug-13 15:59N 58°47' E 009°44'0 0.2
2017-Aug-13 15:29N 58°47' E 009°44'0 0.2
2017-Aug-13 14:59N 58°47' E 009°44'0 0.2
2017-Aug-13 14:29N 58°46' E 009°44'0 0.4
2017-Aug-13 13:59N 58°46' E 009°44'0 0.4
2017-Aug-13 13:29N 58°46' E 009°44'0 0.5
2017-Aug-13 12:53N 58°46' E 009°44'0 0.6
2017-Aug-13 12:29N 58°46' E 009°45'0 0.7
2017-Aug-13 11:56N 58°45' E 009°45'0 0.8
2017-Aug-13 11:29N 58°45' E 009°46'0 1.0
2017-Aug-13 10:59N 58°45' E 009°47'1 1.0
2017-Aug-13 10:29N 58°45' E 009°48'1 2.7
2017-Aug-13 10:00N 58°46' E 009°47'2 3.2
2017-Aug-13 09:29N 58°47' E 009°44'2 3.6
2017-Aug-13 09:00N 58°46' E 009°41'4 7.8
2017-Aug-13 08:30N 58°43' E 009°37'4 7.3
2017-Aug-13 08:00N 58°41' E 009°31'4 7.0
2017-Aug-13 07:30N 58°39' E 009°26'4 7.1
2017-Aug-13 07:00N 58°37' E 009°20'2 3.2
2017-Aug-13 06:28N 58°36' E 009°18'1 1.4
2017-Aug-13 05:55N 58°36' E 009°19'1 1.4
2017-Aug-13 05:28N 58°36' E 009°20'1 1.5
2017-Aug-13 04:58N 58°37' E 009°21'1 1.5
2017-Aug-13 04:28N 58°38' E 009°22'1 1.4
2017-Aug-13 03:58N 58°38' E 009°23'1 1.4
2017-Aug-13 03:28N 58°39' E 009°24'1 1.2
2017-Aug-13 02:58N 58°39' E 009°25'1 1.4
2017-Aug-13 02:25N 58°40' E 009°26'1 1.5
2017-Aug-13 01:58N 58°40' E 009°26'1 1.3
2017-Aug-13 01:28N 58°41' E 009°27'1 1.2
2017-Aug-13 00:58N 58°41' E 009°28'1 1.1
2017-Aug-13 00:28N 58°42' E 009°28'1 1.0
2017-Aug-12 23:55N 58°42' E 009°29'0 1.0
2017-Aug-12 23:28N 58°43' E 009°29'0 0.9
2017-Aug-12 22:58N 58°43' E 009°30'0 0.8
2017-Aug-12 22:28N 58°43' E 009°30'0 0.8
2017-Aug-12 21:58N 58°44' E 009°31'0 0.6
2017-Aug-12 21:28N 58°44' E 009°31'0 0.5
2017-Aug-12 20:58N 58°44' E 009°31'0 0.4
2017-Aug-12 20:28N 58°44' E 009°32'0 0.4
2017-Aug-12 19:58N 58°44' E 009°32'0 0.1
2017-Aug-12 19:25N 58°44' E 009°32'0 0.4
2017-Aug-12 18:58N 58°44' E 009°32'0 0.4
2017-Aug-12 18:28N 58°44' E 009°32'0 0.4
2017-Aug-12 17:58N 58°44' E 009°32'0 0.5
2017-Aug-12 17:28N 58°43' E 009°32'0 0.4
2017-Aug-12 16:58N 58°43' E 009°32'0 0.4
2017-Aug-12 16:28N 58°43' E 009°32'0 0.6
2017-Aug-12 15:58N 58°43' E 009°33'0 0.6
2017-Aug-12 15:28N 58°43' E 009°33'0 0.6
2017-Aug-12 14:58N 58°43' E 009°34'0 0.5
2017-Aug-12 14:28N 58°42' E 009°34'0 0.4
2017-Aug-12 13:58N 58°42' E 009°35'0 0.4
2017-Aug-12 13:28N 58°42' E 009°35'0 0.5
2017-Aug-12 12:58N 58°42' E 009°35'0 0.5
2017-Aug-12 12:25N 58°42' E 009°36'0 0.5
2017-Aug-12 11:58N 58°42' E 009°36'0 0.5
2017-Aug-12 11:28N 58°42' E 009°37'0 0.6
2017-Aug-12 10:58N 58°42' E 009°37'0 0.6
2017-Aug-12 10:25N 58°42' E 009°38'0 0.6
2017-Aug-12 09:58N 58°42' E 009°39'0 0.6
2017-Aug-12 09:28N 58°42' E 009°39'0 0.7
2017-Aug-12 08:58N 58°42' E 009°40'0 0.8
2017-Aug-12 08:28N 58°42' E 009°41'2 5.4
2017-Aug-12 08:00N 58°44' E 009°43'4 7.4
2017-Aug-12 07:30N 58°47' E 009°48'4 7.6
2017-Aug-12 07:00N 58°50' E 009°52'3 5.4
2017-Aug-12 06:30N 58°52' E 009°54'3 6.8
2017-Aug-12 06:00N 58°51' E 009°48'2 3.5
2017-Aug-12 05:29N 58°50' E 009°45'2 3.4
2017-Aug-12 05:00N 58°49' E 009°42'2 3.1
2017-Aug-12 04:30N 58°49' E 009°39'0 0.8
2017-Aug-12 04:00N 58°49' E 009°40'2 3.2
2017-Aug-12 03:30N 58°50' E 009°42'2 3.3
2017-Aug-12 03:00N 58°50' E 009°45'1 3.0
2017-Aug-12 02:30N 58°50' E 009°48'1 2.9
2017-Aug-12 02:00N 58°51' E 009°51'2 3.0
2017-Aug-12 01:30N 58°51' E 009°54'1 2.9
2017-Aug-12 01:00N 58°51' E 009°57'2 3.0
2017-Aug-12 00:30N 58°50' E 009°60'1 2.6
2017-Aug-12 00:00N 58°50' E 010°01'3 6.5
2017-Aug-11 23:30N 58°46' E 010°01'3 7.0
2017-Aug-11 23:00N 58°43' E 010°02'46 8.0
2017-Aug-11 17:12N 58°03' E 010°48'2 8.3
2017-Aug-11 16:58N 58°01' E 010°50'4 8.5
2017-Aug-11 16:28N 57°58' E 010°53'4 8.7
2017-Aug-11 16:00N 57°54' E 010°57'5 9.0
2017-Aug-11 15:28N 57°50' E 011°02'4 8.9
2017-Aug-11 14:59N 57°46' E 011°06'9 8.9
2017-Aug-11 13:59N 57°39' E 011°15'4 9.2
2017-Aug-11 13:30N 57°35' E 011°19'5 9.1
2017-Aug-11 13:00N 57°31' E 011°23'4 9.0
2017-Aug-11 12:30N 57°27' E 011°27'5 9.1
2017-Aug-11 12:00N 57°23' E 011°30'5 9.2
2017-Aug-11 11:28N 57°18' E 011°32'4 9.1
2017-Aug-11 11:00N 57°14' E 011°35'5 8.9
2017-Aug-11 10:29N 57°10' E 011°38'  

Dump ship's entire track history